sensor_id;sensor_type;location;lat;lon;timestamp;pressure;altitude;pressure_sealevel;temperature;humidity
24154;BME280;12312;53.362;-1.518;2022-12-16T00:01:11;99148.97;;;0.19;99.83
24154;BME280;12312;53.362;-1.518;2022-12-16T00:03:40;99158.81;;;0.11;100.00
24154;BME280;12312;53.362;-1.518;2022-12-16T00:06:07;99152.69;;;0.12;99.87
24154;BME280;12312;53.362;-1.518;2022-12-16T00:08:38;99155.94;;;0.19;99.54
24154;BME280;12312;53.362;-1.518;2022-12-16T00:11:05;99150.06;;;0.12;99.73
24154;BME280;12312;53.362;-1.518;2022-12-16T00:13:32;99153.38;;;0.17;99.48
24154;BME280;12312;53.362;-1.518;2022-12-16T00:15:59;99146.31;;;-0.07;100.00
24154;BME280;12312;53.362;-1.518;2022-12-16T00:18:25;99143.97;;;-0.16;100.00
24154;BME280;12312;53.362;-1.518;2022-12-16T00:20:52;99144.06;;;-0.19;100.00
24154;BME280;12312;53.362;-1.518;2022-12-16T00:23:23;99143.44;;;-0.27;100.00
24154;BME280;12312;53.362;-1.518;2022-12-16T00:25:49;99142.56;;;-0.26;100.00
24154;BME280;12312;53.362;-1.518;2022-12-16T00:28:16;99146.94;;;-0.27;100.00
24154;BME280;12312;53.362;-1.518;2022-12-16T00:30:44;99149.53;;;0.01;100.00
24154;BME280;12312;53.362;-1.518;2022-12-16T00:33:12;99145.56;;;0.16;100.00
24154;BME280;12312;53.362;-1.518;2022-12-16T00:35:37;99145.31;;;0.23;100.00
24154;BME280;12312;53.362;-1.518;2022-12-16T00:38:04;99143.00;;;0.14;100.00
24154;BME280;12312;53.362;-1.518;2022-12-16T00:40:30;99143.81;;;0.16;100.00
24154;BME280;12312;53.362;-1.518;2022-12-16T00:42:56;99139.00;;;0.04;100.00
24154;BME280;12312;53.362;-1.518;2022-12-16T00:45:22;99141.09;;;0.19;100.00
24154;BME280;12312;53.362;-1.518;2022-12-16T00:47:49;99138.81;;;0.36;99.79
24154;BME280;12312;53.362;-1.518;2022-12-16T00:50:16;99128.25;;;0.39;99.18
24154;BME280;12312;53.362;-1.518;2022-12-16T00:52:41;99136.34;;;0.32;99.39
24154;BME280;12312;53.362;-1.518;2022-12-16T00:55:08;99136.09;;;0.39;99.29
24154;BME280;12312;53.362;-1.518;2022-12-16T00:57:33;99139.22;;;0.24;99.42
24154;BME280;12312;53.362;-1.518;2022-12-16T00:59:59;99142.50;;;0.29;98.86
24154;BME280;12312;53.362;-1.518;2022-12-16T01:02:25;99142.09;;;0.41;98.59
24154;BME280;12312;53.362;-1.518;2022-12-16T01:04:51;99149.81;;;0.46;97.41
24154;BME280;12312;53.362;-1.518;2022-12-16T01:07:17;99143.63;;;0.48;96.63
24154;BME280;12312;53.362;-1.518;2022-12-16T01:09:43;99149.81;;;0.46;96.76
24154;BME280;12312;53.362;-1.518;2022-12-16T01:12:09;99142.00;;;0.44;96.88
24154;BME280;12312;53.362;-1.518;2022-12-16T01:14:35;99148.47;;;0.34;96.89
24154;BME280;12312;53.362;-1.518;2022-12-16T01:17:01;99149.47;;;0.30;97.21
24154;BME280;12312;53.362;-1.518;2022-12-16T01:19:28;99147.84;;;0.26;97.19
24154;BME280;12312;53.362;-1.518;2022-12-16T01:21:53;99152.25;;;0.26;97.50
24154;BME280;12312;53.362;-1.518;2022-12-16T01:24:18;99143.38;;;0.30;97.17
24154;BME280;12312;53.362;-1.518;2022-12-16T01:26:44;99142.84;;;0.19;97.43
24154;BME280;12312;53.362;-1.518;2022-12-16T01:29:10;99147.06;;;0.24;96.56
24154;BME280;12312;53.362;-1.518;2022-12-16T01:31:36;99145.31;;;0.23;95.94
24154;BME280;12312;53.362;-1.518;2022-12-16T01:34:02;99149.78;;;0.21;96.24
24154;BME280;12312;53.362;-1.518;2022-12-16T01:36:28;99141.94;;;0.21;95.85
24154;BME280;12312;53.362;-1.518;2022-12-16T01:38:53;99145.47;;;0.19;95.40
24154;BME280;12312;53.362;-1.518;2022-12-16T01:41:19;99145.56;;;0.16;95.71
24154;BME280;12312;53.362;-1.518;2022-12-16T01:43:45;99154.50;;;0.10;95.25
24154;BME280;12312;53.362;-1.518;2022-12-16T01:51:38;99153.75;;;0.05;95.93
24154;BME280;12312;53.362;-1.518;2022-12-16T01:56:41;99162.44;;;0.07;95.91
24154;BME280;12312;53.362;-1.518;2022-12-16T01:59:10;99164.22;;;0.05;96.03
24154;BME280;12312;53.362;-1.518;2022-12-16T02:01:38;99177.59;;;-0.04;96.32
24154;BME280;12312;53.362;-1.518;2022-12-16T02:04:04;99179.91;;;0.05;95.71
24154;BME280;12312;53.362;-1.518;2022-12-16T02:06:31;99179.03;;;0.06;95.40
24154;BME280;12312;53.362;-1.518;2022-12-16T02:08:59;99185.16;;;0.05;95.65
24154;BME280;12312;53.362;-1.518;2022-12-16T02:20:14;99173.38;;;0.20;96.85
24154;BME280;12312;53.362;-1.518;2022-12-16T02:39:20;99176.31;;;0.09;97.13
24154;BME280;12312;53.362;-1.518;2022-12-16T02:42:03;99178.25;;;-0.25;97.09
24154;BME280;12312;53.362;-1.518;2022-12-16T02:44:52;99187.38;;;-0.11;96.84
24154;BME280;12312;53.362;-1.518;2022-12-16T02:47:19;99187.16;;;-0.31;97.24
24154;BME280;12312;53.362;-1.518;2022-12-16T02:49:50;99187.50;;;-0.43;97.56
24154;BME280;12312;53.362;-1.518;2022-12-16T02:52:22;99179.88;;;-0.50;98.46
24154;BME280;12312;53.362;-1.518;2022-12-16T02:54:52;99185.91;;;-0.48;98.32
24154;BME280;12312;53.362;-1.518;2022-12-16T03:00:29;99183.34;;;-0.21;96.44
24154;BME280;12312;53.362;-1.518;2022-12-16T03:03:03;99178.25;;;-0.25;96.14
24154;BME280;12312;53.362;-1.518;2022-12-16T03:05:33;99174.34;;;-0.12;95.62
24154;BME280;12312;53.362;-1.518;2022-12-16T03:08:11;99171.72;;;-0.12;94.72
24154;BME280;12312;53.362;-1.518;2022-12-16T03:10:43;99171.78;;;-0.14;95.17
24154;BME280;12312;53.362;-1.518;2022-12-16T03:13:10;99173.47;;;-0.11;94.94
24154;BME280;12312;53.362;-1.518;2022-12-16T03:15:38;99171.81;;;-0.15;95.02
24154;BME280;12312;53.362;-1.518;2022-12-16T03:18:07;99177.25;;;-0.21;95.88
24154;BME280;12312;53.362;-1.518;2022-12-16T03:20:44;99171.91;;;-0.18;95.24
24154;BME280;12312;53.362;-1.518;2022-12-16T03:23:15;99172.19;;;-0.27;95.60
24154;BME280;12312;53.362;-1.518;2022-12-16T03:25:44;99175.53;;;-0.22;95.25
24154;BME280;12312;53.362;-1.518;2022-12-16T03:30:52;99171.22;;;-0.23;94.86
24154;BME280;12312;53.362;-1.518;2022-12-16T03:33:28;99181.13;;;-0.34;94.93
24154;BME280;12312;53.362;-1.518;2022-12-16T03:36:06;99180.97;;;-0.28;94.87
24154;BME280;12312;53.362;-1.518;2022-12-16T03:38:35;99170.63;;;-0.33;95.60
24154;BME280;12312;53.362;-1.518;2022-12-16T03:41:02;99177.97;;;-0.16;99.10
24154;BME280;12312;53.362;-1.518;2022-12-16T03:43:29;99167.66;;;0.07;100.00
24154;BME280;12312;53.362;-1.518;2022-12-16T03:45:59;99166.38;;;0.46;100.00
24154;BME280;12312;53.362;-1.518;2022-12-16T03:48:28;99165.88;;;0.86;100.00
24154;BME280;12312;53.362;-1.518;2022-12-16T03:50:55;99170.22;;;0.36;100.00
24154;BME280;12312;53.362;-1.518;2022-12-16T03:53:22;99176.63;;;-0.02;100.00
24154;BME280;12312;53.362;-1.518;2022-12-16T03:55:52;99184.47;;;-0.29;98.57
24154;BME280;12312;53.362;-1.518;2022-12-16T03:58:17;99180.13;;;-0.30;99.01
24154;BME280;12312;53.362;-1.518;2022-12-16T04:00:43;99188.16;;;-0.36;98.61
24154;BME280;12312;53.362;-1.518;2022-12-16T04:03:08;99185.16;;;-0.53;99.07
24154;BME280;12312;53.362;-1.518;2022-12-16T04:05:34;99188.06;;;-0.62;98.96
24154;BME280;12312;53.362;-1.518;2022-12-16T04:08:00;99190.88;;;-0.70;98.68
24154;BME280;12312;53.362;-1.518;2022-12-16T04:10:25;99191.06;;;-0.76;99.76
24154;BME280;12312;53.362;-1.518;2022-12-16T04:13:10;99191.00;;;-0.74;99.15
24154;BME280;12312;53.362;-1.518;2022-12-16T04:15:55;99187.53;;;-0.73;100.00
24154;BME280;12312;53.362;-1.518;2022-12-16T04:18:39;99193.09;;;-0.56;98.72
24154;BME280;12312;53.362;-1.518;2022-12-16T04:21:25;99184.50;;;-0.60;98.52
24154;BME280;12312;53.362;-1.518;2022-12-16T04:24:14;99190.84;;;-0.68;98.36
24154;BME280;12312;53.362;-1.518;2022-12-16T04:26:44;99188.00;;;-0.61;97.99
24154;BME280;12312;53.362;-1.518;2022-12-16T04:29:28;99184.84;;;-0.41;97.12
24154;BME280;12312;53.362;-1.518;2022-12-16T04:31:54;99184.66;;;-0.35;96.03
24154;BME280;12312;53.362;-1.518;2022-12-16T04:34:20;99191.50;;;-0.31;95.66
24154;BME280;12312;53.362;-1.518;2022-12-16T04:36:58;99181.78;;;-0.26;95.10
24154;BME280;12312;53.362;-1.518;2022-12-16T04:39:43;99185.03;;;-0.20;94.27
24154;BME280;12312;53.362;-1.518;2022-12-16T04:42:31;99175.44;;;-0.19;93.70
24154;BME280;12312;53.362;-1.518;2022-12-16T04:45:15;99185.78;;;-0.15;93.46
24154;BME280;12312;53.362;-1.518;2022-12-16T04:48:04;99189.53;;;-0.23;93.96
24154;BME280;12312;53.362;-1.518;2022-12-16T04:50:49;99194.75;;;-0.23;94.38
24154;BME280;12312;53.362;-1.518;2022-12-16T04:53:33;99188.44;;;-0.16;93.44
24154;BME280;12312;53.362;-1.518;2022-12-16T04:56:17;99191.63;;;-0.07;92.67
24154;BME280;12312;53.362;-1.518;2022-12-16T04:59:01;99190.00;;;-0.11;92.69
24154;BME280;12312;53.362;-1.518;2022-12-16T05:01:45;99190.22;;;-0.18;93.20
24154;BME280;12312;53.362;-1.518;2022-12-16T05:04:29;99185.22;;;-0.26;94.69
24154;BME280;12312;53.362;-1.518;2022-12-16T05:07:14;99179.22;;;-0.28;94.89
24154;BME280;12312;53.362;-1.518;2022-12-16T05:09:58;99188.34;;;-0.42;95.85
24154;BME280;12312;53.362;-1.518;2022-12-16T05:12:42;99185.16;;;-0.53;95.74
24154;BME280;12312;53.362;-1.518;2022-12-16T05:15:26;99179.56;;;-0.69;95.93
24154;BME280;12312;53.362;-1.518;2022-12-16T05:18:13;99184.88;;;-0.72;97.80
24154;BME280;12312;53.362;-1.518;2022-12-16T05:20:58;99183.31;;;-0.79;98.08
24154;BME280;12312;53.362;-1.518;2022-12-16T05:23:43;99186.56;;;-0.71;97.75
24154;BME280;12312;53.362;-1.518;2022-12-16T05:26:27;99186.81;;;-0.49;96.36
24154;BME280;12312;53.362;-1.518;2022-12-16T05:29:11;99188.16;;;-0.36;95.64
24154;BME280;12312;53.362;-1.518;2022-12-16T05:32:09;99188.16;;;-0.36;94.38
24154;BME280;12312;53.362;-1.518;2022-12-16T05:34:53;99193.38;;;-0.36;93.81
24154;BME280;12312;53.362;-1.518;2022-12-16T05:37:37;99197.00;;;-0.40;93.93
24154;BME280;12312;53.362;-1.518;2022-12-16T05:40:21;99190.06;;;-0.41;94.14
24154;BME280;12312;53.362;-1.518;2022-12-16T05:43:05;99183.13;;;-0.42;94.40
24154;BME280;12312;53.362;-1.518;2022-12-16T05:45:49;99183.13;;;-0.42;94.24
24154;BME280;12312;53.362;-1.518;2022-12-16T05:48:33;99190.34;;;-0.50;94.74
24154;BME280;12312;53.362;-1.518;2022-12-16T05:51:17;99188.53;;;-0.79;95.65
24154;BME280;12312;53.362;-1.518;2022-12-16T05:54:01;99191.09;;;-1.09;96.19
24154;BME280;12312;53.362;-1.518;2022-12-16T05:56:45;99191.84;;;-1.04;97.41
24154;BME280;12312;53.362;-1.518;2022-12-16T05:59:29;99186.38;;;-0.95;96.95
24154;BME280;12312;53.362;-1.518;2022-12-16T06:02:14;99185.78;;;-0.74;96.12
24154;BME280;12312;53.362;-1.518;2022-12-16T06:04:58;99192.31;;;-0.58;95.03
24154;BME280;12312;53.362;-1.518;2022-12-16T06:07:41;99179.63;;;-0.72;94.44
24154;BME280;12312;53.362;-1.518;2022-12-16T06:10:25;99177.25;;;-0.79;93.71
24154;BME280;12312;53.362;-1.518;2022-12-16T06:13:10;99184.25;;;-0.81;95.58
24154;BME280;12312;53.362;-1.518;2022-12-16T06:15:54;99175.50;;;-0.80;95.90
24154;BME280;12312;53.362;-1.518;2022-12-16T06:18:39;99176.53;;;-0.55;94.55
24154;BME280;12312;53.362;-1.518;2022-12-16T06:21:22;99173.78;;;-0.51;93.64
24154;BME280;12312;53.362;-1.518;2022-12-16T06:24:07;99183.81;;;-0.66;94.87
24154;BME280;12312;53.362;-1.518;2022-12-16T06:26:51;99191.00;;;-0.74;95.74
24154;BME280;12312;53.362;-1.518;2022-12-16T06:29:35;99191.34;;;-0.86;96.31
24154;BME280;12312;53.362;-1.518;2022-12-16T06:32:19;99199.19;;;-0.86;96.85
24154;BME280;12312;53.362;-1.518;2022-12-16T06:35:03;99191.72;;;-0.10;100.00
24154;BME280;12312;53.362;-1.518;2022-12-16T06:37:47;99197.53;;;-0.58;100.00
24154;BME280;12312;53.362;-1.518;2022-12-16T06:40:32;99197.06;;;-0.72;99.14
24154;BME280;12312;53.362;-1.518;2022-12-16T06:43:16;99198.22;;;0.05;100.00
24154;BME280;12312;53.362;-1.518;2022-12-16T06:46:00;99200.34;;;-0.08;100.00
24154;BME280;12312;53.362;-1.518;2022-12-16T06:48:44;99197.13;;;-0.16;100.00
24154;BME280;12312;53.362;-1.518;2022-12-16T06:51:42;99200.16;;;0.00;100.00
24154;BME280;12312;53.362;-1.518;2022-12-16T06:54:26;99205.31;;;-0.26;100.00
24154;BME280;12312;53.362;-1.518;2022-12-16T06:57:10;99210.56;;;-0.57;100.00
24154;BME280;12312;53.362;-1.518;2022-12-16T06:59:53;99205.47;;;-0.93;100.00
24154;BME280;12312;53.362;-1.518;2022-12-16T07:02:37;99200.41;;;-0.67;100.00
24154;BME280;12312;53.362;-1.518;2022-12-16T07:05:21;99203.31;;;-0.78;100.00
24154;BME280;12312;53.362;-1.518;2022-12-16T07:08:06;99209.84;;;-0.63;100.00
24154;BME280;12312;53.362;-1.518;2022-12-16T07:10:50;99201.19;;;-0.65;100.00
24154;BME280;12312;53.362;-1.518;2022-12-16T07:13:34;99200.50;;;-0.70;100.00
24154;BME280;12312;53.362;-1.518;2022-12-16T07:16:38;99212.72;;;-0.72;100.00
24154;BME280;12312;53.362;-1.518;2022-12-16T07:19:22;99203.31;;;-1.10;100.00
24154;BME280;12312;53.362;-1.518;2022-12-16T07:22:06;99215.19;;;-0.98;100.00
24154;BME280;12312;53.362;-1.518;2022-12-16T07:24:50;99224.44;;;-0.85;100.00
24154;BME280;12312;53.362;-1.518;2022-12-16T07:27:34;99222.34;;;-0.74;99.90
24154;BME280;12312;53.362;-1.518;2022-12-16T07:30:24;99215.44;;;-0.75;99.96
24154;BME280;12312;53.362;-1.518;2022-12-16T07:33:08;99226.28;;;-0.90;100.00
24154;BME280;12312;53.362;-1.518;2022-12-16T07:35:52;99216.56;;;-0.55;100.00
24154;BME280;12312;53.362;-1.518;2022-12-16T07:38:36;99207.03;;;-0.86;100.00
24154;BME280;12312;53.362;-1.518;2022-12-16T07:41:20;99214.16;;;-0.91;100.00
24154;BME280;12312;53.362;-1.518;2022-12-16T07:44:04;99217.34;;;-1.14;100.00
24154;BME280;12312;53.362;-1.518;2022-12-16T07:46:48;99228.25;;;-0.66;100.00
24154;BME280;12312;53.362;-1.518;2022-12-16T07:49:32;99218.44;;;-0.58;100.00
24154;BME280;12312;53.362;-1.518;2022-12-16T07:52:17;99223.19;;;-0.72;100.00
24154;BME280;12312;53.362;-1.518;2022-12-16T07:55:01;99219.56;;;-0.68;100.00
24154;BME280;12312;53.362;-1.518;2022-12-16T07:57:49;99223.56;;;-0.86;100.00
24154;BME280;12312;53.362;-1.518;2022-12-16T08:00:33;99228.88;;;-0.89;100.00
24154;BME280;12312;53.362;-1.518;2022-12-16T08:03:17;99236.13;;;-0.68;100.00
24154;BME280;12312;53.362;-1.518;2022-12-16T08:06:02;99243.59;;;-0.86;100.00
24154;BME280;12312;53.362;-1.518;2022-12-16T08:08:46;99249.50;;;-0.80;100.00
24154;BME280;12312;53.362;-1.518;2022-12-16T08:11:30;99253.06;;;-0.82;100.00
24154;BME280;12312;53.362;-1.518;2022-12-16T08:14:15;99249.28;;;-1.04;100.00
24154;BME280;12312;53.362;-1.518;2022-12-16T08:16:59;99254.06;;;-1.21;100.00
24154;BME280;12312;53.362;-1.518;2022-12-16T08:19:43;99255.75;;;-0.85;100.00
24154;BME280;12312;53.362;-1.518;2022-12-16T08:22:27;99258.41;;;-0.87;100.00
24154;BME280;12312;53.362;-1.518;2022-12-16T08:25:11;99267.44;;;-1.00;100.00
24154;BME280;12312;53.362;-1.518;2022-12-16T08:27:55;99277.63;;;-0.89;100.00
24154;BME280;12312;53.362;-1.518;2022-12-16T08:30:40;99272.72;;;-1.01;100.00
24154;BME280;12312;53.362;-1.518;2022-12-16T08:33:25;99281.56;;;-0.73;100.00
24154;BME280;12312;53.362;-1.518;2022-12-16T08:36:09;99276.91;;;-0.94;100.00
24154;BME280;12312;53.362;-1.518;2022-12-16T08:38:53;99271.03;;;-0.70;100.00
24154;BME280;12312;53.362;-1.518;2022-12-16T08:41:37;99261.34;;;-0.36;100.00
24154;BME280;12312;53.362;-1.518;2022-12-16T08:44:21;99265.03;;;-0.13;100.00
24154;BME280;12312;53.362;-1.518;2022-12-16T08:47:05;99264.50;;;0.33;100.00
24154;BME280;12312;53.362;-1.518;2022-12-16T08:49:49;99271.81;;;0.22;100.00
24154;BME280;12312;53.362;-1.518;2022-12-16T08:52:33;99271.34;;;0.10;100.00
24154;BME280;12312;53.362;-1.518;2022-12-16T08:55:17;99284.41;;;-0.20;100.00
24154;BME280;12312;53.362;-1.518;2022-12-16T08:58:02;99275.00;;;-0.57;100.00
24154;BME280;12312;53.362;-1.518;2022-12-16T09:00:45;99280.91;;;-0.49;100.00
24154;BME280;12312;53.362;-1.518;2022-12-16T09:03:30;99273.50;;;-0.66;100.00
24154;BME280;12312;53.362;-1.518;2022-12-16T09:06:14;99278.81;;;-0.69;100.00
24154;BME280;12312;53.362;-1.518;2022-12-16T09:08:58;99279.97;;;-0.80;100.00
24154;BME280;12312;53.362;-1.518;2022-12-16T09:12:02;99286.63;;;-0.67;100.00
24154;BME280;12312;53.362;-1.518;2022-12-16T09:14:46;99288.97;;;-0.26;100.00
24154;BME280;12312;53.362;-1.518;2022-12-16T09:17:31;99284.34;;;-0.47;100.00
24154;BME280;12312;53.362;-1.518;2022-12-16T09:20:15;99284.97;;;-0.39;100.00
24154;BME280;12312;53.362;-1.518;2022-12-16T09:23:01;99286.03;;;-0.46;100.00
24154;BME280;12312;53.362;-1.518;2022-12-16T09:25:45;99292.88;;;-0.42;100.00
24154;BME280;12312;53.362;-1.518;2022-12-16T09:28:29;99294.19;;;-0.26;100.00
24154;BME280;12312;53.362;-1.518;2022-12-16T09:31:13;99289.63;;;-0.20;100.00
24154;BME280;12312;53.362;-1.518;2022-12-16T09:33:58;99298.25;;;-0.16;100.00
24154;BME280;12312;53.362;-1.518;2022-12-16T09:36:42;99296.41;;;-0.13;100.00
24154;BME280;12312;53.362;-1.518;2022-12-16T09:39:26;99294.06;;;-0.22;100.00
24154;BME280;12312;53.362;-1.518;2022-12-16T09:42:20;99296.75;;;-0.55;100.00
24154;BME280;12312;53.362;-1.518;2022-12-16T09:50:53;99306.44;;;-0.28;100.00
24154;BME280;12312;53.362;-1.518;2022-12-16T09:53:39;99304.72;;;-0.29;100.00
24154;BME280;12312;53.362;-1.518;2022-12-16T09:56:31;99307.44;;;-0.03;100.00
24154;BME280;12312;53.362;-1.518;2022-12-16T09:59:23;99310.06;;;-0.03;100.00
24154;BME280;12312;53.362;-1.518;2022-12-16T10:02:13;99315.34;;;-0.05;100.00
24154;BME280;12312;53.362;-1.518;2022-12-16T10:04:59;99315.75;;;0.11;100.00
24154;BME280;12312;53.362;-1.518;2022-12-16T10:08:09;99310.84;;;0.30;100.00
24154;BME280;12312;53.362;-1.518;2022-12-16T10:11:11;99310.13;;;0.52;100.00
24154;BME280;12312;53.362;-1.518;2022-12-16T10:14:06;99319.94;;;0.73;100.00
24154;BME280;12312;53.362;-1.518;2022-12-16T10:16:56;99314.50;;;0.79;98.76
24154;BME280;12312;53.362;-1.518;2022-12-16T10:28:54;99316.06;;;1.12;100.00
24154;BME280;12312;53.362;-1.518;2022-12-16T10:31:41;99302.13;;;1.10;99.02
24154;BME280;12312;53.362;-1.518;2022-12-16T10:34:31;99301.81;;;1.19;97.93
24154;BME280;12312;53.362;-1.518;2022-12-16T10:37:32;99299.47;;;1.12;98.20
24154;BME280;12312;53.362;-1.518;2022-12-16T10:40:19;99305.31;;;1.20;98.12
24154;BME280;12312;53.362;-1.518;2022-12-16T10:45:58;99304.81;;;1.09;99.02
24154;BME280;12312;53.362;-1.518;2022-12-16T10:48:43;99306.56;;;1.08;99.05
24154;BME280;12312;53.362;-1.518;2022-12-16T10:51:28;99305.47;;;1.40;100.00
24154;BME280;12312;53.362;-1.518;2022-12-16T11:00:19;99291.81;;;1.56;97.85
24154;BME280;12312;53.362;-1.518;2022-12-16T11:03:22;99286.00;;;2.41;99.76
24154;BME280;12312;53.362;-1.518;2022-12-16T11:06:07;99288.13;;;2.96;95.98
24154;BME280;12312;53.362;-1.518;2022-12-16T11:08:51;99282.38;;;3.08;92.39
24154;BME280;12312;53.362;-1.518;2022-12-16T11:11:37;99287.50;;;3.11;89.66
24154;BME280;12312;53.362;-1.518;2022-12-16T11:14:27;99283.38;;;2.62;91.17
24154;BME280;12312;53.362;-1.518;2022-12-16T11:17:21;99286.00;;;2.41;93.01
24154;BME280;12312;53.362;-1.518;2022-12-16T11:29:10;99269.44;;;2.82;90.04
24154;BME280;12312;53.362;-1.518;2022-12-16T11:31:58;99273.63;;;2.66;90.40
24154;BME280;12312;53.362;-1.518;2022-12-16T11:34:48;99267.75;;;2.81;90.19
24154;BME280;12312;53.362;-1.518;2022-12-16T11:37:35;99275.91;;;2.95;88.82
24154;BME280;12312;53.362;-1.518;2022-12-16T11:40:21;99271.75;;;3.11;87.19
24154;BME280;12312;53.362;-1.518;2022-12-16T11:43:09;99269.16;;;3.09;86.54
24154;BME280;12312;53.362;-1.518;2022-12-16T11:45:56;99277.31;;;2.82;87.98
24154;BME280;12312;53.362;-1.518;2022-12-16T11:48:55;99272.81;;;2.64;89.64
24154;BME280;12312;53.362;-1.518;2022-12-16T11:51:45;99266.38;;;2.71;89.23
24154;BME280;12312;53.362;-1.518;2022-12-16T11:54:35;99270.16;;;3.67;93.31
24154;BME280;12312;53.362;-1.518;2022-12-16T11:57:34;99263.19;;;4.23;90.03
24154;BME280;12312;53.362;-1.518;2022-12-16T12:00:21;99267.31;;;3.92;83.94
24154;BME280;12312;53.362;-1.518;2022-12-16T12:03:19;99257.97;;;4.59;80.69
24154;BME280;12312;53.362;-1.518;2022-12-16T12:14:52;99257.13;;;6.12;76.68
24154;BME280;12312;53.362;-1.518;2022-12-16T12:17:46;99253.31;;;6.33;75.40
24154;BME280;12312;53.362;-1.518;2022-12-16T12:24:24;99245.66;;;5.46;72.75
24154;BME280;12312;53.362;-1.518;2022-12-16T12:30:14;99261.16;;;4.65;76.26
24154;BME280;12312;53.362;-1.518;2022-12-16T12:36:46;99261.34;;;3.48;90.61
24154;BME280;12312;53.362;-1.518;2022-12-16T12:39:47;99259.25;;;3.36;89.58
24154;BME280;12312;53.362;-1.518;2022-12-16T12:51:07;99249.53;;;2.55;88.42
24154;BME280;12312;53.362;-1.518;2022-12-16T12:57:03;99254.59;;;2.81;86.75
24154;BME280;12312;53.362;-1.518;2022-12-16T13:00:12;99246.00;;;2.77;89.20
24154;BME280;12312;53.362;-1.518;2022-12-16T13:06:05;99248.84;;;2.28;89.89
24154;BME280;12312;53.362;-1.518;2022-12-16T13:08:55;99242.88;;;2.46;89.12
24154;BME280;12312;53.362;-1.518;2022-12-16T13:14:56;99247.41;;;2.43;93.81
24154;BME280;12312;53.362;-1.518;2022-12-16T13:20:55;99244.66;;;2.46;92.14
24154;BME280;12312;53.362;-1.518;2022-12-16T13:23:42;99245.03;;;2.37;91.37
24154;BME280;12312;53.362;-1.518;2022-12-16T13:26:31;99244.81;;;2.20;91.24
24154;BME280;12312;53.362;-1.518;2022-12-16T13:29:30;99242.91;;;2.02;91.28
24154;BME280;12312;53.362;-1.518;2022-12-16T13:32:23;99244.50;;;2.27;90.32
24154;BME280;12312;53.362;-1.518;2022-12-16T13:46:51;99236.59;;;2.72;87.56
24154;BME280;12312;53.362;-1.518;2022-12-16T13:55:39;99233.53;;;2.39;87.09
24154;BME280;12312;53.362;-1.518;2022-12-16T14:01:35;99229.38;;;2.34;88.17
24154;BME280;12312;53.362;-1.518;2022-12-16T14:04:26;99231.25;;;1.85;89.15
24154;BME280;12312;53.362;-1.518;2022-12-16T14:07:14;99237.06;;;2.17;89.29
24154;BME280;12312;53.362;-1.518;2022-12-16T14:10:01;99228.56;;;1.87;90.39
24154;BME280;12312;53.362;-1.518;2022-12-16T14:13:02;99228.75;;;1.82;90.61
24154;BME280;12312;53.362;-1.518;2022-12-16T14:16:00;99230.59;;;2.47;100.00
24154;BME280;12312;53.362;-1.518;2022-12-16T14:22:04;99239.97;;;2.09;90.83
24154;BME280;12312;53.362;-1.518;2022-12-16T14:24:54;99242.22;;;2.41;90.17
24154;BME280;12312;53.362;-1.518;2022-12-16T14:27:38;99234.53;;;2.37;88.05
24154;BME280;12312;53.362;-1.518;2022-12-16T14:30:24;99239.78;;;2.37;87.96
24154;BME280;12312;53.362;-1.518;2022-12-16T14:33:35;99237.09;;;2.38;86.61
24154;BME280;12312;53.362;-1.518;2022-12-16T14:36:26;99244.09;;;2.38;86.51
24154;BME280;12312;53.362;-1.518;2022-12-16T14:39:19;99238.03;;;2.36;86.84
24154;BME280;12312;53.362;-1.518;2022-12-16T14:42:28;99241.91;;;2.49;85.88
24154;BME280;12312;53.362;-1.518;2022-12-16T14:51:30;99240.38;;;2.22;87.79
24154;BME280;12312;53.362;-1.518;2022-12-16T14:54:34;99240.38;;;2.65;95.72
24154;BME280;12312;53.362;-1.518;2022-12-16T14:57:27;99246.34;;;2.47;90.96
24154;BME280;12312;53.362;-1.518;2022-12-16T15:00:16;99245.75;;;2.62;92.75
24154;BME280;12312;53.362;-1.518;2022-12-16T15:05:52;99244.13;;;2.15;88.36
24154;BME280;12312;53.362;-1.518;2022-12-16T15:08:51;99236.19;;;2.16;88.89
24154;BME280;12312;53.362;-1.518;2022-12-16T15:11:38;99245.84;;;2.16;88.13
24154;BME280;12312;53.362;-1.518;2022-12-16T15:14:29;99247.69;;;2.14;87.48
24154;BME280;12312;53.362;-1.518;2022-12-16T15:17:49;99254.03;;;2.08;90.31
24154;BME280;12312;53.362;-1.518;2022-12-16T15:20:47;99255.25;;;2.21;94.05
24154;BME280;12312;53.362;-1.518;2022-12-16T15:23:32;99247.84;;;2.09;89.66
24154;BME280;12312;53.362;-1.518;2022-12-16T15:26:22;99263.72;;;2.06;88.57
24154;BME280;12312;53.362;-1.518;2022-12-16T15:35:09;99260.63;;;1.72;90.86
24154;BME280;12312;53.362;-1.518;2022-12-16T15:37:55;99262.84;;;1.59;90.96
24154;BME280;12312;53.362;-1.518;2022-12-16T15:40:40;99261.81;;;1.63;91.07
24154;BME280;12312;53.362;-1.518;2022-12-16T15:43:30;99259.91;;;1.68;90.35
24154;BME280;12312;53.362;-1.518;2022-12-16T15:46:26;99261.22;;;1.55;90.91
24154;BME280;12312;53.362;-1.518;2022-12-16T15:49:19;99265.88;;;1.47;93.07
24154;BME280;12312;53.362;-1.518;2022-12-16T15:55:37;99273.19;;;1.39;94.94
24154;BME280;12312;53.362;-1.518;2022-12-16T15:58:28;99285.16;;;1.46;94.75
24154;BME280;12312;53.362;-1.518;2022-12-16T16:01:42;99282.16;;;1.57;94.87
24154;BME280;12312;53.362;-1.518;2022-12-16T16:04:27;99285.38;;;1.40;95.30
24154;BME280;12312;53.362;-1.518;2022-12-16T16:07:20;99292.41;;;1.38;96.59
24154;BME280;12312;53.362;-1.518;2022-12-16T16:10:18;99285.84;;;1.51;95.38
24154;BME280;12312;53.362;-1.518;2022-12-16T16:13:02;99294.03;;;1.67;97.90
24154;BME280;12312;53.362;-1.518;2022-12-16T16:15:47;99297.50;;;1.67;99.39
24154;BME280;12312;53.362;-1.518;2022-12-16T16:18:31;99297.94;;;1.55;97.68
24154;BME280;12312;53.362;-1.518;2022-12-16T16:21:17;99299.91;;;1.49;96.02
24154;BME280;12312;53.362;-1.518;2022-12-16T16:24:02;99298.03;;;1.52;97.04
24154;BME280;12312;53.362;-1.518;2022-12-16T16:26:46;99295.41;;;1.52;92.79
24154;BME280;12312;53.362;-1.518;2022-12-16T16:29:31;99298.38;;;1.43;91.44
24154;BME280;12312;53.362;-1.518;2022-12-16T16:32:17;99306.75;;;1.28;92.62
24154;BME280;12312;53.362;-1.518;2022-12-16T16:35:01;99297.41;;;1.21;93.38
24154;BME280;12312;53.362;-1.518;2022-12-16T16:37:45;99300.97;;;1.19;94.24
24154;BME280;12312;53.362;-1.518;2022-12-16T16:40:35;99297.59;;;1.15;94.18
24154;BME280;12312;53.362;-1.518;2022-12-16T16:43:21;99298.69;;;1.08;94.82
24154;BME280;12312;53.362;-1.518;2022-12-16T16:46:26;99296.69;;;1.16;96.02